createdAt,value
2023-04-03T10:12:07.812Z,7.90
2023-04-03T10:14:37.246Z,8.00
2023-04-03T10:17:22.170Z,8.10
2023-04-03T10:19:54.830Z,8.20
2023-04-03T10:22:46.701Z,8.20
2023-04-03T10:25:21.691Z,8.40
2023-04-03T10:28:09.631Z,8.40
2023-04-03T10:30:49.954Z,8.30
2023-04-03T10:33:47.780Z,8.30
2023-04-03T10:36:17.157Z,8.50
2023-04-03T10:39:12.873Z,8.40
2023-04-03T10:42:17.195Z,8.50
2023-04-03T10:45:03.219Z,8.60
2023-04-03T10:47:47.070Z,8.60
2023-04-03T10:50:39.315Z,8.80
2023-04-03T10:53:28.055Z,8.90
2023-04-03T10:56:14.077Z,9.20
2023-04-03T10:58:44.784Z,9.20
2023-04-03T11:01:17.449Z,9.30
2023-04-03T11:03:48.384Z,9.50
2023-04-03T11:06:18.704Z,9.40
2023-04-03T11:08:56.149Z,9.70
2023-04-03T11:11:28.187Z,9.60
2023-04-03T11:14:23.396Z,9.60
2023-04-03T11:16:54.580Z,9.60
2023-04-03T11:19:26.814Z,9.70
2023-04-03T11:22:02.028Z,9.90
2023-04-03T11:24:32.469Z,9.90
2023-04-03T11:27:01.884Z,9.90
2023-04-03T11:29:38.985Z,10.20
2023-04-03T11:32:22.059Z,10.10
2023-04-03T11:34:51.593Z,10.30
2023-04-03T11:37:28.078Z,10.30
2023-04-03T11:39:58.643Z,10.40
2023-04-03T11:42:36.825Z,10.20
2023-04-03T11:45:22.414Z,10.30
2023-04-03T11:47:54.607Z,10.30
2023-04-03T11:50:41.317Z,10.50
2023-04-03T11:53:08.157Z,10.40
2023-04-03T11:55:35.072Z,10.50
2023-04-03T11:58:02.036Z,10.70
2023-04-03T12:00:57.627Z,10.80
2023-04-03T12:03:25.020Z,11.00
2023-04-03T12:05:58.426Z,10.70
2023-04-03T12:08:30.331Z,10.90
2023-04-03T12:11:12.854Z,10.60
2023-04-03T12:13:57.988Z,10.80
2023-04-03T12:16:27.804Z,10.80
2023-04-03T12:18:56.929Z,10.90
2023-04-03T12:21:49.575Z,11.10
2023-04-03T12:24:22.027Z,11.50
2023-04-03T12:27:08.482Z,11.70
2023-04-03T12:29:44.101Z,11.20
2023-04-03T12:32:52.112Z,11.60
2023-04-03T12:36:01.331Z,11.80
2023-04-03T12:38:50.887Z,11.70
2023-04-03T12:41:44.956Z,11.90
2023-04-03T12:44:18.898Z,12.10
2023-04-03T12:46:49.388Z,12.40
2023-04-03T12:49:24.042Z,12.40
2023-04-03T12:51:51.208Z,12.40
2023-04-03T12:54:31.302Z,12.40
2023-04-03T12:57:12.689Z,12.50
2023-04-03T12:59:40.381Z,12.20
2023-04-03T13:02:24.757Z,12.70
2023-04-03T13:04:58.776Z,12.80
2023-04-03T13:07:31.735Z,12.80
2023-04-03T13:10:08.458Z,13.10
2023-04-03T13:12:36.522Z,13.00
2023-04-03T13:15:14.958Z,13.40
2023-04-03T13:17:43.441Z,13.80
2023-04-03T13:20:23.679Z,13.80
2023-04-03T13:23:09.193Z,13.70
2023-04-03T13:25:41.620Z,13.30
2023-04-03T13:28:13.722Z,13.90
2023-04-03T13:30:42.149Z,14.30
2023-04-03T13:33:27.797Z,13.90
2023-04-03T13:36:08.722Z,14.20
2023-04-03T13:38:37.289Z,14.70
2023-04-03T13:41:25.808Z,14.80
2023-04-03T13:43:57.562Z,14.60
2023-04-03T13:46:28.778Z,14.80
2023-04-03T13:48:57.417Z,14.20
2023-04-03T13:51:29.562Z,14.50
2023-04-03T13:53:58.510Z,14.40
2023-04-03T13:56:38.191Z,14.60
2023-04-03T13:59:24.702Z,15.40
2023-04-03T14:02:03.622Z,15.00
2023-04-03T14:04:44.982Z,15.60
2023-04-03T14:07:13.267Z,15.60
2023-04-03T14:09:39.985Z,15.60
2023-04-03T14:12:30.079Z,15.80
2023-04-03T14:14:58.113Z,15.60
2023-04-03T14:17:27.439Z,15.60
2023-04-03T14:19:55.836Z,16.00
2023-04-03T14:22:30.117Z,15.60
2023-04-03T14:24:57.172Z,16.50
2023-04-03T14:27:36.750Z,16.70
2023-04-03T14:30:05.807Z,16.30
2023-04-03T14:32:33.129Z,16.40
2023-04-03T14:35:00.242Z,15.20
2023-04-03T14:37:30.314Z,16.00
2023-04-03T14:39:59.917Z,16.10
2023-04-03T14:42:31.969Z,16.80
2023-04-03T14:45:00.398Z,16.60
2023-04-03T14:47:31.619Z,17.20
2023-04-03T14:50:00.932Z,16.80
2023-04-03T14:52:34.205Z,16.80
2023-04-03T14:55:02.147Z,16.80
2023-04-03T14:57:30.344Z,16.90
2023-04-03T14:59:57.516Z,17.10
2023-04-03T15:02:32.586Z,16.10
2023-04-03T15:05:01.217Z,16.50
2023-04-03T15:07:31.599Z,16.80
2023-04-03T15:09:58.485Z,16.80
2023-04-03T15:12:26.339Z,15.50
2023-04-03T15:15:00.857Z,16.10
2023-04-03T15:17:29.747Z,15.80
2023-04-03T15:19:56.925Z,16.00
2023-04-03T15:22:23.580Z,16.20
2023-04-03T15:24:50.296Z,16.00
2023-04-03T15:27:17.333Z,15.80
2023-04-03T15:29:45.793Z,15.70
2023-04-03T15:32:13.086Z,16.00
2023-04-03T15:34:40.902Z,15.60
2023-04-03T15:37:07.596Z,15.50
2023-04-03T15:39:34.347Z,15.20
2023-04-03T15:42:06.758Z,15.20
2023-04-03T15:44:35.030Z,14.80
2023-04-03T15:47:02.693Z,14.80
2023-04-03T15:49:29.565Z,14.80
2023-04-03T15:51:56.396Z,14.40
2023-04-03T15:54:24.854Z,14.80
2023-04-03T15:56:51.619Z,14.70
2023-04-03T15:59:18.669Z,15.40
2023-04-03T16:01:46.117Z,15.80
2023-04-03T16:04:14.273Z,14.60
2023-04-03T16:06:42.589Z,14.70
2023-04-03T16:09:10.044Z,15.00
2023-04-03T16:11:40.096Z,14.60
2023-04-03T16:14:08.364Z,14.50
2023-04-03T16:16:36.487Z,14.80
2023-04-03T16:19:03.811Z,14.00
2023-04-03T16:21:30.726Z,14.60
2023-04-03T16:23:59.316Z,14.90
2023-04-03T16:26:26.430Z,14.40
2023-04-03T16:28:54.299Z,13.80
2023-04-03T16:31:21.733Z,13.40
2023-04-03T16:33:48.751Z,13.40
2023-04-03T16:36:15.623Z,13.10
2023-04-03T16:38:42.250Z,13.10
2023-04-03T16:41:09.032Z,12.60
2023-04-03T16:43:36.564Z,12.40
2023-04-03T16:46:03.679Z,12.40
2023-04-03T16:48:31.176Z,12.50
2023-04-03T16:50:57.914Z,12.70
2023-04-03T16:53:25.736Z,12.90
2023-04-03T16:55:52.502Z,12.40
2023-04-03T16:58:20.671Z,12.30
2023-04-03T17:00:49.078Z,12.30
2023-04-03T17:03:16.061Z,12.50
2023-04-03T17:05:44.652Z,12.80
2023-04-03T17:08:11.637Z,12.70
2023-04-03T17:10:38.458Z,12.90
2023-04-03T17:13:05.188Z,12.50
2023-04-03T17:15:32.100Z,11.70
2023-04-03T17:17:58.824Z,11.90
2023-04-03T17:20:26.180Z,11.60
2023-04-03T17:22:53.599Z,11.50
2023-04-03T17:25:20.281Z,11.50
2023-04-03T17:27:47.356Z,11.40
2023-04-03T17:30:14.133Z,11.50
2023-04-03T17:32:40.854Z,11.00
2023-04-03T17:35:10.211Z,11.00
2023-04-03T17:37:37.796Z,10.90
2023-04-03T17:40:04.834Z,10.90
2023-04-03T17:42:32.549Z,10.70
2023-04-03T17:45:01.375Z,10.60
2023-04-03T17:47:28.188Z,10.70
2023-04-03T17:49:54.989Z,10.60
2023-04-03T17:52:25.436Z,10.50
2023-04-03T17:54:52.199Z,10.50
2023-04-03T17:57:19.100Z,10.40
2023-04-03T17:59:46.484Z,10.40
2023-04-03T18:02:13.364Z,10.30
2023-04-03T18:04:40.106Z,10.10
2023-04-03T18:07:10.321Z,10.00
2023-04-03T18:09:37.955Z,9.90
2023-04-03T18:12:10.469Z,9.90
2023-04-03T18:14:38.548Z,9.80
2023-04-03T18:17:05.407Z,9.90
2023-04-03T18:19:32.910Z,9.70
2023-04-03T18:22:12.251Z,9.60
2023-04-03T18:24:38.966Z,9.60
2023-04-03T18:27:11.061Z,9.50
2023-04-03T18:29:39.659Z,9.50
2023-04-03T18:32:07.617Z,9.40
2023-04-03T18:34:34.332Z,9.20
2023-04-03T18:37:03.070Z,9.20
2023-04-03T18:39:29.952Z,9.00
2023-04-03T18:41:59.653Z,9.00
2023-04-03T18:44:28.085Z,9.00
2023-04-03T18:46:56.644Z,8.80
2023-04-03T18:49:24.575Z,8.80
2023-04-03T18:51:51.259Z,8.70
2023-04-03T18:54:18.578Z,8.70
2023-04-03T18:56:47.031Z,8.80
2023-04-03T18:59:14.465Z,8.60
2023-04-03T19:01:43.762Z,8.50
2023-04-03T19:04:10.583Z,8.50
2023-04-03T19:06:37.904Z,8.50
2023-04-03T19:09:09.097Z,8.30
2023-04-03T19:11:36.583Z,8.20
2023-04-03T19:14:15.299Z,8.20
2023-04-03T19:16:45.866Z,8.20
2023-04-03T19:19:13.868Z,8.20
2023-04-03T19:21:42.130Z,8.20
2023-04-03T19:24:12.943Z,8.20
2023-04-03T19:26:41.516Z,8.10
2023-04-03T19:29:08.652Z,8.20
2023-04-03T19:31:38.164Z,8.10
2023-04-03T19:34:06.268Z,8.10
2023-04-03T19:36:33.976Z,8.00
2023-04-03T19:39:00.842Z,7.90
2023-04-03T19:41:30.133Z,7.90
2023-04-03T19:43:57.537Z,7.80
2023-04-03T19:46:29.473Z,7.70
2023-04-03T19:48:56.483Z,7.60
2023-04-03T19:51:23.188Z,7.50
2023-04-03T19:53:50.051Z,7.50
2023-04-03T19:56:17.126Z,7.50
2023-04-03T19:58:44.368Z,7.40
2023-04-03T20:01:11.441Z,7.30
2023-04-03T20:03:38.419Z,7.20
2023-04-03T20:06:05.436Z,7.10
2023-04-03T20:08:32.269Z,7.00
2023-04-03T20:10:58.946Z,6.90
2023-04-03T20:13:25.535Z,6.90
2023-04-03T20:15:53.394Z,6.80
2023-04-03T20:18:21.412Z,6.70
2023-04-03T20:21:02.227Z,6.70
2023-04-03T20:23:29.063Z,6.60
2023-04-03T20:26:09.182Z,6.50
2023-04-03T20:28:38.014Z,6.50
2023-04-03T20:31:05.289Z,6.40
2023-04-03T20:33:31.979Z,6.40
2023-04-03T20:35:59.017Z,6.40
2023-04-03T20:38:25.879Z,6.30
2023-04-03T20:40:52.664Z,6.30
2023-04-03T20:43:21.667Z,6.20
2023-04-03T20:45:49.330Z,6.20
2023-04-03T20:48:16.776Z,6.20
2023-04-03T20:50:45.902Z,6.10
2023-04-03T20:53:13.341Z,6.00
2023-04-03T20:55:40.199Z,6.00
2023-04-03T20:58:06.804Z,6.00
2023-04-03T21:00:33.491Z,5.90
2023-04-03T21:03:01.392Z,5.80
2023-04-03T21:05:30.090Z,5.70
2023-04-03T21:08:35.878Z,5.70
2023-04-03T21:11:40.544Z,5.70
2023-04-03T21:14:45.887Z,5.60
2023-04-03T21:17:12.510Z,5.60
2023-04-03T21:19:45.786Z,5.50
2023-04-03T21:22:13.860Z,5.40
2023-04-03T21:24:41.056Z,5.40
2023-04-03T21:27:08.176Z,5.30
2023-04-03T21:29:34.853Z,5.30
2023-04-03T21:32:01.803Z,5.20
2023-04-03T21:34:30.064Z,5.30
2023-04-03T21:37:08.765Z,5.10
2023-04-03T21:39:36.217Z,5.10
2023-04-03T21:42:02.834Z,5.00
2023-04-03T21:44:29.587Z,5.00
2023-04-03T21:46:56.578Z,5.00
2023-04-03T21:49:24.723Z,4.90
2023-04-03T21:51:52.178Z,4.80
2023-04-03T21:54:19.044Z,4.80
2023-04-03T21:56:48.036Z,4.80
2023-04-03T21:59:15.832Z,4.70
2023-04-03T22:01:42.853Z,4.70
2023-04-03T22:04:09.654Z,4.60
2023-04-03T22:06:37.605Z,4.60
2023-04-03T22:09:04.355Z,4.50
2023-04-03T22:11:31.210Z,4.50
2023-04-03T22:13:58.303Z,4.40
2023-04-03T22:16:25.468Z,4.40
2023-04-03T22:18:52.958Z,4.40
2023-04-03T22:21:20.853Z,4.30
2023-04-03T22:23:47.553Z,4.30
2023-04-03T22:26:14.393Z,4.30
2023-04-03T22:28:46.270Z,4.30
2023-04-03T22:31:14.908Z,4.20
2023-04-03T22:33:42.764Z,4.20
2023-04-03T22:36:11.382Z,4.10
2023-04-03T22:38:39.133Z,4.10
2023-04-03T22:41:07.607Z,4.10
2023-04-03T22:43:36.484Z,4.00
2023-04-03T22:46:05.151Z,3.80
2023-04-03T22:48:32.147Z,3.90
2023-04-03T22:51:02.281Z,3.90
2023-04-03T22:53:28.909Z,4.00
2023-04-03T22:56:04.728Z,3.90
2023-04-03T22:58:31.425Z,3.90
2023-04-03T23:01:07.174Z,3.90
2023-04-03T23:03:35.007Z,3.70
2023-04-03T23:06:03.523Z,3.80
2023-04-03T23:08:32.549Z,3.70
2023-04-03T23:10:59.518Z,3.70
2023-04-03T23:13:27.003Z,3.70
2023-04-03T23:15:58.541Z,3.70
2023-04-03T23:18:26.754Z,3.70
2023-04-03T23:20:54.686Z,3.80
2023-04-03T23:23:22.628Z,3.80
2023-04-03T23:25:57.095Z,3.70
2023-04-03T23:28:24.042Z,3.70
2023-04-03T23:30:57.009Z,3.80
2023-04-03T23:33:23.671Z,3.70
2023-04-03T23:35:52.007Z,3.80
2023-04-03T23:38:18.777Z,3.80
2023-04-03T23:40:46.049Z,3.70
2023-04-03T23:43:12.822Z,3.70
2023-04-03T23:45:39.814Z,3.80
2023-04-03T23:48:06.704Z,3.80
2023-04-03T23:50:33.400Z,3.80
2023-04-03T23:53:00.812Z,3.80
2023-04-03T23:55:27.504Z,3.80
2023-04-03T23:57:54.135Z,3.70
